Time;durP1;ratioP1;P1;durP2;ratioP2;P2;SDS_P1;SDS_P2;PMS_P1;PMS_P2;Temp;Humidity;BMP_temperature;BMP_pressure;BME280_temperature;BME280_humidity;BME280_pressure;Samples;Min_cycle;Max_cycle;Signal;HPM_P1;HPM_P2
2022/08/18 00:08:40;;;;;;;3.90;3.58;;;;;;;19.74;100.00;100935.97;21029929;28;20051;-74
2022/08/18 00:18:42;;;;;;;3.50;3.20;;;;;;;19.73;100.00;100926.16;21047891;28;20046;-74
2022/08/18 00:28:43;;;;;;;4.25;3.35;;;;;;;19.73;100.00;100931.56;21046940;28;20401;-74
2022/08/18 00:38:45;;;;;;;4.00;3.25;;;;;;;19.68;100.00;100921.22;21027528;28;20046;-74
2022/08/18 00:48:47;;;;;;;3.40;3.10;;;;;;;19.73;100.00;100942.38;21045429;28;20439;-73
2022/08/18 00:59:24;;;;;;;3.63;3.03;;;;;;;19.73;100.00;100926.16;21043685;28;20516;-74
2022/08/18 01:09:26;;;;;;;3.63;3.33;;;;;;;19.72;100.00;100940.66;21038020;28;20108;-74
2022/08/18 01:29:49;;;;;;;3.45;3.15;;;;;;;19.71;100.00;100936.25;21027970;28;20052;-74
2022/08/18 01:39:50;;;;;;;3.00;2.72;;;;;;;19.69;100.00;100932.84;21020807;28;20075;-74
2022/08/18 01:50:12;;;;;;;3.63;2.90;;;;;;;19.54;100.00;100903.63;21054637;28;20055;-74
2022/08/18 02:00:16;;;;;;;2.78;2.58;;;;;;;19.62;100.00;100912.84;21056836;28;20051;-74
2022/08/18 02:10:18;;;;;;;2.67;2.47;;;;;;;19.69;100.00;100930.16;21056460;28;20040;-74
2022/08/18 02:20:20;;;;;;;4.38;2.85;;;;;;;19.67;100.00;100933.03;21055793;28;20048;-74
2022/08/18 02:30:22;;;;;;;2.83;2.63;;;;;;;19.65;100.00;100928.75;21054771;28;20044;-74
2022/08/18 02:40:23;;;;;;;2.65;2.42;;;;;;;19.54;100.00;100924.38;21040584;28;20500;-73
2022/08/18 02:50:25;;;;;;;2.53;2.33;;;;;;;19.45;100.00;100890.16;21052578;28;20044;-74
2022/08/18 03:00:27;;;;;;;3.28;2.80;;;;;;;19.67;100.00;100921.34;21052684;28;20763;-74
2022/08/18 03:10:28;;;;;;;2.78;2.38;;;;;;;19.66;100.00;100935.84;21052866;28;20058;-74
2022/08/18 03:20:34;;;;;;;2.75;2.55;;;;;;;19.65;100.00;100928.75;21051586;28;20055;-74
2022/08/18 03:30:36;;;;;;;2.92;2.42;;;;;;;19.65;100.00;100945.78;20978777;28;20463;-74
2022/08/18 03:40:38;;;;;;;3.10;2.60;;;;;;;19.66;100.00;100946.66;20916726;28;20143;-74
2022/08/18 03:50:40;;;;;;;2.60;2.40;;;;;;;19.66;100.00;100944.78;20899965;28;20044;-73
2022/08/18 04:00:41;;;;;;;3.42;2.42;;;;;;;19.63;100.00;100941.56;20909960;28;20056;-73
2022/08/18 04:10:43;;;;;;;4.85;2.30;;;;;;;19.73;100.00;100963.13;20923268;28;20055;-73
2022/08/18 04:20:45;;;;;;;2.40;2.17;;;;;;;19.73;100.00;100958.56;20922709;28;20052;-73
2022/08/18 04:31:08;;;;;;;2.90;2.55;;;;;;;19.74;100.00;100962.97;20901624;28;20041;-73
2022/08/18 04:41:12;;;;;;;2.95;2.45;;;;;;;19.75;100.00;100985.44;20902589;28;20421;-73
2022/08/18 04:51:16;;;;;;;3.35;2.38;;;;;;;19.76;100.00;100982.59;20915245;28;20052;-74
2022/08/18 05:01:44;;;;;;;3.43;2.83;;;;;;;19.77;100.00;100975.34;20932544;28;20131;-74
2022/08/18 05:11:46;;;;;;;5.90;2.80;;;;;;;19.76;100.00;100974.47;20946434;28;20109;-73
2022/08/18 05:21:49;;;;;;;2.95;2.50;;;;;;;19.61;100.00;100965.16;20945669;28;20052;-73
2022/08/18 05:31:52;;;;;;;4.17;3.00;;;;;;;19.77;100.00;100981.59;20933577;28;20136;-73
2022/08/18 05:42:07;;;;;;;3.47;2.50;;;;;;;19.77;100.00;100970.78;20931568;28;20036;-73
2022/08/18 05:52:21;;;;;;;5.03;2.63;;;;;;;19.78;100.00;100977.88;20935530;28;20076;-73
2022/08/18 06:03:00;;;;;;;5.18;2.40;;;;;;;19.78;100.00;100967.09;20952550;28;20040;-73
2022/08/18 06:13:03;;;;;;;3.15;2.53;;;;;;;19.78;100.00;100983.28;20971145;28;20049;-73
2022/08/18 06:23:23;;;;;;;2.88;2.53;;;;;;;19.78;100.00;100983.28;20976849;28;20045;-73
2022/08/18 06:33:35;;;;;;;4.25;2.40;;;;;;;19.66;100.00;100968.25;20932138;28;20048;-73
2022/08/18 06:43:42;;;;;;;3.03;2.60;;;;;;;19.79;100.00;100985.00;20918116;28;20052;-73
2022/08/18 06:54:03;;;;;;;2.83;2.40;;;;;;;19.79;100.00;101006.59;20918509;28;20182;-73
2022/08/18 07:04:05;;;;;;;4.22;2.25;;;;;;;19.80;100.00;101019.13;20910521;28;20501;-74
2022/08/18 07:14:20;;;;;;;5.18;2.70;;;;;;;19.80;100.00;101032.63;20890405;28;20056;-73
2022/08/18 07:24:33;;;;;;;3.83;2.60;;;;;;;19.82;100.00;101030.63;20914795;28;20140;-74
2022/08/18 07:34:39;;;;;;;4.95;3.03;;;;;;;19.84;100.00;101042.13;20911743;28;20542;-74
2022/08/18 07:44:52;;;;;;;4.45;2.70;;;;;;;19.86;100.00;101050.94;20924564;28;20110;-74
2022/08/18 07:55:05;;;;;;;3.15;2.65;;;;;;;19.89;100.00;101044.41;20944065;28;20094;-74
2022/08/18 08:05:19;;;;;;;3.25;2.55;;;;;;;19.91;100.00;101055.97;20907412;28;20056;-74
2022/08/18 08:15:26;;;;;;;3.38;2.47;;;;;;;19.95;100.00;101056.53;20910092;28;20072;-74
2022/08/18 08:26:10;;;;;;;4.25;2.90;;;;;;;19.96;100.00;101058.22;20914650;28;20059;-74
2022/08/18 08:36:27;;;;;;;5.05;2.72;;;;;;;19.86;100.00;101045.53;20912999;28;20060;-75
2022/08/18 08:46:35;;;;;;;4.45;2.50;;;;;;;19.77;100.00;101030.22;20905914;28;20048;-74
2022/08/18 08:56:43;;;;;;;2.25;1.85;;;;;;;20.00;100.00;101073.16;20882290;28;20076;-73
2022/08/18 09:06:57;;;;;;;4.22;2.20;;;;;;;20.00;100.00;101073.16;20897920;28;20409;-73
2022/08/18 09:17:32;;;;;;;2.53;2.22;;;;;;;19.95;100.00;101072.75;20889190;28;20177;-73
2022/08/18 09:27:41;;;;;;;3.05;2.03;;;;;;;19.92;100.00;101081.13;20886266;28;20052;-74
2022/08/18 09:48:37;;;;;;;3.15;1.95;;;;;;;19.93;100.00;101093.66;20891365;28;20068;-74
2022/08/18 09:58:53;;;;;;;2.40;2.10;;;;;;;19.77;100.00;101072.59;20903067;28;20683;-75
2022/08/18 10:09:15;;;;;;;2.72;1.92;;;;;;;19.95;100.00;101103.28;20887365;28;20055;-75
2022/08/18 10:19:49;;;;;;;2.97;2.00;;;;;;;19.97;100.00;101100.47;20884249;28;20064;-75
2022/08/18 10:29:53;;;;;;;4.22;1.80;;;;;;;19.98;100.00;101092.19;20883049;28;20519;-74
2022/08/18 10:39:59;;;;;;;2.15;1.85;;;;;;;19.99;100.00;101093.06;20913389;28;20060;-73
2022/08/18 10:50:07;;;;;;;2.80;1.77;;;;;;;20.01;100.00;101101.88;20896508;28;20519;-74
2022/08/18 11:00:12;;;;;;;2.83;2.05;;;;;;;20.03;100.00;101107.13;20924001;28;20050;-74
2022/08/18 11:10:22;;;;;;;1.98;1.60;;;;;;;20.04;100.00;101107.00;20902674;28;20060;-74
2022/08/18 11:20:32;;;;;;;2.67;1.70;;;;;;;20.05;100.00;101114.09;20881889;28;20135;-74
2022/08/18 11:30:36;;;;;;;2.72;1.55;;;;;;;19.90;100.00;101088.50;20879943;28;20055;-74
2022/08/18 11:40:43;;;;;;;2.28;1.30;;;;;;;20.08;100.00;101118.34;20874839;28;20047;-73
2022/08/18 11:51:16;;;;;;;2.50;1.67;;;;;;;20.10;100.00;101121.75;20871038;28;20492;-73
2022/08/18 12:01:31;;;;;;;1.92;1.60;;;;;;;20.10;100.00;101122.63;20892744;28;20056;-73
2022/08/18 12:11:53;;;;;;;1.58;1.35;;;;;;;20.06;100.00;101110.41;20909397;28;20052;-74
2022/08/18 12:21:57;;;;;;;2.40;1.30;;;;;;;20.14;100.00;101106.97;20902483;28;20478;-73
2022/08/18 12:31:58;;;;;;;1.70;1.37;;;;;;;20.15;100.00;101081.66;20896820;28;20128;-73
2022/08/18 12:42:01;;;;;;;1.60;1.45;;;;;;;20.13;100.00;101073.66;20870056;28;20076;-74
2022/08/18 12:52:03;;;;;;;2.63;1.45;;;;;;;20.17;100.00;101058.03;20868909;28;20055;-74
2022/08/18 13:02:04;;;;;;;2.92;1.90;;;;;;;20.18;100.00;101053.47;20888903;28;20434;-73
2022/08/18 13:12:08;;;;;;;2.22;1.65;;;;;;;20.20;100.00;101057.72;20890991;28;20190;-74
2022/08/18 13:22:15;;;;;;;1.92;1.20;;;;;;;19.44;100.00;100939.75;20866495;28;20511;-75
2022/08/18 13:32:17;;;;;;;1.63;1.33;;;;;;;20.18;100.00;101048.91;20891834;28;20084;-75
2022/08/18 13:42:19;;;;;;;3.38;1.65;;;;;;;20.19;100.00;101071.38;20906274;28;20516;-74
2022/08/18 13:52:31;;;;;;;3.03;1.48;;;;;;;20.20;100.00;101056.84;20925602;28;21119;-74
2022/08/18 14:02:36;;;;;;;2.90;1.50;;;;;;;20.05;100.00;101048.38;20914058;28;20678;-74
2022/08/18 14:12:38;;;;;;;1.60;1.40;;;;;;;20.20;100.00;101089.28;20924260;28;20067;-74
2022/08/18 14:33:05;;;;;;;1.92;1.60;;;;;;;19.65;100.00;101007.06;20895822;28;20853;-73
2022/08/18 14:43:14;;;;;;;1.35;1.10;;;;;;;20.22;100.00;101084.59;20906734;28;20048;-74
2022/08/18 14:53:19;;;;;;;3.27;1.50;;;;;;;20.19;100.00;101074.06;20878252;28;20048;-74
2022/08/18 15:03:22;;;;;;;2.25;1.60;;;;;;;20.12;100.00;101066.56;20876670;28;20049;-74
2022/08/18 15:13:33;;;;;;;2.47;1.40;;;;;;;20.16;100.00;101040.09;20873997;28;20052;-75
2022/08/18 15:33:59;;;;;;;2.40;1.50;;;;;;;20.12;100.00;101055.75;20877235;28;20064;-76
2022/08/18 15:44:04;;;;;;;1.53;1.33;;;;;;;20.12;100.00;101063.03;20884455;28;20044;-75
2022/08/18 15:54:06;;;;;;;3.13;1.52;;;;;;;20.03;100.00;101024.22;20886149;28;20601;-75
2022/08/18 16:04:14;;;;;;;3.47;2.35;;;;;;;20.10;100.00;101041.53;20878879;28;20056;-76
2022/08/18 16:14:16;;;;;;;2.27;1.70;;;;;;;20.10;100.00;101043.38;20872242;28;20524;-76
2022/08/18 16:24:17;;;;;;;3.42;2.00;;;;;;;20.02;100.00;101017.09;20885067;28;20067;-76
2022/08/18 16:34:19;;;;;;;2.75;2.17;;;;;;;20.08;100.00;101040.84;20882174;28;20048;-75
2022/08/18 16:44:20;;;;;;;2.90;2.00;;;;;;;20.07;100.00;101020.22;20893031;28;20072;-76
2022/08/18 16:54:22;;;;;;;3.20;1.90;;;;;;;20.07;100.00;101028.31;20895455;28;20056;-76
2022/08/18 17:04:32;;;;;;;3.63;1.88;;;;;;;19.61;100.00;100946.25;20901338;28;20048;-75
2022/08/18 17:14:35;;;;;;;3.05;2.25;;;;;;;19.45;100.00;100920.72;20894253;28;20047;-75
2022/08/18 17:24:37;;;;;;;2.17;1.95;;;;;;;20.05;100.00;101021.34;20895245;28;20048;-75
2022/08/18 17:34:57;;;;;;;2.50;2.00;;;;;;;20.04;100.00;101020.50;20936441;28;20128;-75
2022/08/18 17:45:06;;;;;;;2.67;1.92;;;;;;;20.02;100.00;101030.63;20922129;28;20496;-75
2022/08/18 17:55:21;;;;;;;2.00;1.80;;;;;;;19.71;100.00;100988.44;20946227;28;20094;-75
2022/08/18 18:05:28;;;;;;;2.83;2.10;;;;;;;20.00;100.00;101046.13;20928276;28;20044;-75
2022/08/18 18:15:31;;;;;;;2.60;1.92;;;;;;;20.00;100.00;101051.53;20926794;28;20056;-74
2022/08/18 18:25:33;;;;;;;3.10;1.83;;;;;;;19.99;100.00;101057.94;20912264;28;20084;-73
2022/08/18 18:35:50;;;;;;;2.25;2.05;;;;;;;19.94;100.00;101044.84;20963547;28;20428;-74
2022/08/18 18:46:15;;;;;;;2.45;2.00;;;;;;;19.97;100.00;101043.72;20965082;28;20577;-74
2022/08/18 18:56:29;;;;;;;2.13;1.73;;;;;;;19.85;100.00;101033.03;20969403;28;20055;-74
2022/08/18 19:06:37;;;;;;;3.10;1.92;;;;;;;19.95;100.00;101054.66;20969921;28;20389;-74
2022/08/18 19:16:52;;;;;;;2.03;1.85;;;;;;;19.56;100.00;100996.16;21023984;28;20052;-74
2022/08/18 19:26:57;;;;;;;2.42;1.90;;;;;;;19.93;100.00;101069.34;21050780;28;20093;-74
2022/08/18 19:37:02;;;;;;;3.80;2.00;;;;;;;19.93;100.00;101075.56;21049258;28;20138;-74
2022/08/18 19:47:14;;;;;;;2.20;2.00;;;;;;;19.93;100.00;101069.34;21049639;28;20105;-73
2022/08/18 19:57:30;;;;;;;2.00;1.80;;;;;;;19.91;100.00;101058.66;21047860;28;20044;-74
2022/08/18 20:07:49;;;;;;;2.38;1.83;;;;;;;19.74;100.00;101024.28;21031952;28;20056;-74
2022/08/18 20:17:55;;;;;;;1.92;1.50;;;;;;;19.89;100.00;101054.38;20881223;28;22922;-74
2022/08/18 20:27:57;;;;;;;2.05;1.70;;;;;;;19.88;100.00;101049.94;20881942;28;20045;-74
2022/08/18 20:38:33;;;;;;;1.90;1.80;;;;;;;19.88;100.00;101058.06;20880558;28;20053;-74
2022/08/18 20:49:12;;;;;;;1.90;1.60;;;;;;;19.86;100.00;101067.16;20867927;28;20049;-74
2022/08/18 20:59:23;;;;;;;1.80;1.70;;;;;;;19.44;100.00;100997.28;20877542;28;20079;-73
2022/08/18 21:09:25;;;;;;;1.85;1.75;;;;;;;19.59;100.00;101026.56;20943882;28;20044;-74
2022/08/18 21:19:27;;;;;;;1.60;1.50;;;;;;;19.84;100.00;101069.16;21042745;28;20079;-74
2022/08/18 21:29:30;;;;;;;2.67;1.88;;;;;;;19.84;100.00;101073.72;21043764;28;20048;-73
2022/08/18 21:39:59;;;;;;;1.50;1.40;;;;;;;19.82;100.00;101079.25;21028195;28;20059;-73
2022/08/18 21:50:08;;;;;;;2.13;1.48;;;;;;;19.82;100.00;101090.06;21041109;28;20040;-74
2022/08/18 22:00:40;;;;;;;2.35;1.70;;;;;;;19.82;100.00;101094.63;21045101;28;20048;-74
2022/08/18 22:21:03;;;;;;;1.50;1.40;;;;;;;19.80;100.00;101110.13;21057896;28;20377;-74
2022/08/18 22:31:14;;;;;;;1.60;1.50;;;;;;;19.79;100.00;101109.25;21055645;28;20093;-74
2022/08/18 22:41:22;;;;;;;1.90;1.70;;;;;;;19.78;100.00;101107.56;21056537;28;20048;-74
2022/08/18 22:51:25;;;;;;;1.50;1.40;;;;;;;19.78;100.00;101107.56;21053517;28;20051;-73
2022/08/18 23:01:28;;;;;;;1.50;1.38;;;;;;;19.77;100.00;101111.25;21046657;28;20524;-74
2022/08/18 23:11:30;;;;;;;1.38;1.27;;;;;;;19.77;100.00;101113.94;21038362;28;20117;-74
2022/08/18 23:21:32;;;;;;;1.52;1.40;;;;;;;19.50;100.00;101061.53;21052800;28;20059;-74
2022/08/18 23:31:37;;;;;;;1.47;1.30;;;;;;;19.75;100.00;101094.34;21052486;28;20063;-74
2022/08/18 23:41:38;;;;;;;1.80;1.70;;;;;;;19.75;100.00;101091.63;21051929;28;20039;-73
2022/08/18 23:51:46;;;;;;;1.42;1.27;;;;;;;19.73;100.00;101076.59;21049062;28;20040;-74
